Time;durP1;ratioP1;P1;durP2;ratioP2;P2;SDS_P1;SDS_P2;PMS_P1;PMS_P2;Temp;Humidity;BMP_temperature;BMP_pressure;BME280_temperature;BME280_humidity;BME280_pressure;Samples;Min_cycle;Max_cycle;Signal;HPM_P1;HPM_P2
2023/07/20 00:00:39;;;;;;;2.28;1.17;;;16.10;99.90;;;;;;5071031;28;20044;-79
2023/07/20 00:03:16;;;;;;;2.08;1.20;;;16.10;99.90;;;;;;5074190;28;20040;-80
2023/07/20 00:05:45;;;;;;;2.92;1.10;;;16.10;99.90;;;;;;5055320;28;20044;-80
2023/07/20 00:08:10;;;;;;;3.22;1.20;;;16.00;99.90;;;;;;5073921;28;20480;-80
2023/07/20 00:10:36;;;;;;;3.63;1.30;;;15.90;99.90;;;;;;5069747;28;20036;-79
2023/07/20 00:13:01;;;;;;;1.65;1.00;;;15.90;99.90;;;;;;5054591;28;20508;-79
2023/07/20 00:15:27;;;;;;;3.53;1.10;;;15.90;99.90;;;;;;5055475;28;20041;-79
2023/07/20 00:17:53;;;;;;;1.48;0.93;;;15.90;99.90;;;;;;5072846;28;20051;-79
2023/07/20 00:20:18;;;;;;;2.95;0.90;;;15.90;99.90;;;;;;5071795;28;20512;-78
2023/07/20 00:22:44;;;;;;;1.55;1.00;;;15.80;99.90;;;;;;5054178;28;20033;-78
2023/07/20 00:25:11;;;;;;;2.50;1.20;;;15.80;99.90;;;;;;5053982;28;20063;-79
2023/07/20 00:27:37;;;;;;;2.10;1.00;;;15.90;99.90;;;;;;5052176;28;20512;-78
2023/07/20 00:30:03;;;;;;;2.65;1.20;;;15.80;99.90;;;;;;5058823;28;20104;-79
2023/07/20 00:32:29;;;;;;;1.42;1.00;;;15.80;99.90;;;;;;5060693;28;20485;-80
2023/07/20 00:34:55;;;;;;;2.13;1.20;;;15.80;99.90;;;;;;5055872;28;20094;-79
2023/07/20 00:37:20;;;;;;;2.53;1.13;;;15.80;99.90;;;;;;5041830;28;20044;-78
2023/07/20 00:39:46;;;;;;;2.65;1.20;;;15.80;99.90;;;;;;5084522;28;20121;-79
2023/07/20 00:42:11;;;;;;;2.30;1.17;;;15.70;99.90;;;;;;5054275;28;20052;-79
2023/07/20 00:44:37;;;;;;;2.78;1.30;;;15.70;99.90;;;;;;5055459;28;20048;-79
2023/07/20 00:47:03;;;;;;;2.28;1.15;;;15.70;99.90;;;;;;5071141;28;20037;-79
2023/07/20 00:49:29;;;;;;;2.03;1.33;;;15.60;99.90;;;;;;5055452;28;20469;-78
2023/07/20 00:51:55;;;;;;;3.55;1.50;;;15.60;99.90;;;;;;5072278;28;20032;-79
2023/07/20 00:54:20;;;;;;;2.78;1.15;;;15.60;99.90;;;;;;5055420;28;20079;-79
2023/07/20 00:56:46;;;;;;;4.50;1.02;;;15.60;99.90;;;;;;5053466;28;20032;-79
2023/07/20 00:59:12;;;;;;;2.25;1.27;;;15.50;99.90;;;;;;5055303;28;20071;-79
2023/07/20 01:01:38;;;;;;;3.08;1.35;;;15.60;99.90;;;;;;5071952;28;20071;-79
2023/07/20 01:04:04;;;;;;;2.65;1.33;;;15.50;99.90;;;;;;5073356;28;20519;-80
2023/07/20 01:06:39;;;;;;;2.00;1.20;;;15.50;99.90;;;;;;5065303;28;20040;-80
2023/07/20 01:09:24;;;;;;;1.95;1.48;;;15.50;99.90;;;;;;5053082;28;20044;-79
2023/07/20 01:12:06;;;;;;;3.03;1.60;;;15.40;99.90;;;;;;5055360;28;20495;-79
2023/07/20 01:14:32;;;;;;;2.15;1.60;;;15.30;99.90;;;;;;5072015;28;20036;-79
2023/07/20 01:16:58;;;;;;;3.53;1.85;;;15.30;99.90;;;;;;5063610;28;20488;-79
2023/07/20 01:19:23;;;;;;;4.07;1.80;;;15.20;99.90;;;;;;5052957;28;20044;-79
2023/07/20 01:22:18;;;;;;;3.88;1.73;;;15.30;99.90;;;;;;5035068;28;20041;-79
2023/07/20 01:25:14;;;;;;;2.67;1.52;;;15.10;99.90;;;;;;5034828;28;20037;-80
2023/07/20 01:28:02;;;;;;;4.43;1.90;;;15.10;99.90;;;;;;5058994;28;20053;-80
2023/07/20 01:30:49;;;;;;;4.07;1.80;;;15.10;99.90;;;;;;5051648;28;20045;-82
2023/07/20 01:33:16;;;;;;;3.35;1.60;;;15.10;99.90;;;;;;5058089;28;20036;-81
2023/07/20 01:35:45;;;;;;;3.47;1.80;;;15.00;99.90;;;;;;5053146;28;20127;-80
2023/07/20 01:38:13;;;;;;;3.17;1.80;;;15.10;99.90;;;;;;5064408;28;20040;-80
2023/07/20 01:40:40;;;;;;;4.20;2.20;;;15.00;99.90;;;;;;5066638;28;20028;-80
2023/07/20 01:43:06;;;;;;;3.63;1.90;;;15.00;99.90;;;;;;5068630;28;20037;-80
2023/07/20 01:45:31;;;;;;;2.65;1.63;;;15.00;99.90;;;;;;5040717;28;20655;-81
2023/07/20 01:47:57;;;;;;;2.88;1.63;;;15.00;99.90;;;;;;5070140;28;20043;-80
2023/07/20 01:50:22;;;;;;;3.63;2.13;;;15.00;99.90;;;;;;5068426;28;20041;-80
2023/07/20 01:52:48;;;;;;;3.78;2.00;;;15.00;99.90;;;;;;5058888;28;20126;-79
2023/07/20 01:55:14;;;;;;;3.75;2.30;;;15.00;99.90;;;;;;5060789;28;20045;-79
2023/07/20 01:57:39;;;;;;;3.90;2.60;;;14.90;99.90;;;;;;5054849;28;20029;-81
2023/07/20 02:00:08;;;;;;;4.10;2.50;;;14.80;99.90;;;;;;5067603;28;20044;-80
2023/07/20 02:02:34;;;;;;;3.95;2.50;;;14.80;99.90;;;;;;5056851;28;20047;-80
2023/07/20 02:04:59;;;;;;;3.78;2.10;;;14.80;99.90;;;;;;5056889;28;20032;-79
2023/07/20 02:07:25;;;;;;;4.97;2.30;;;14.80;99.90;;;;;;5083243;28;20044;-79
2023/07/20 02:09:51;;;;;;;4.10;2.05;;;14.80;99.90;;;;;;5058394;28;20097;-79
2023/07/20 02:12:16;;;;;;;4.18;2.17;;;14.70;99.90;;;;;;5090676;28;20044;-81
2023/07/20 02:14:42;;;;;;;4.72;2.67;;;14.70;99.90;;;;;;5091602;28;20052;-80
2023/07/20 02:17:10;;;;;;;3.92;2.53;;;14.70;99.90;;;;;;5053571;28;20052;-80
2023/07/20 02:19:37;;;;;;;4.28;2.60;;;14.80;99.90;;;;;;5065386;28;20519;-80
2023/07/20 02:22:02;;;;;;;4.68;2.72;;;14.60;99.90;;;;;;5071073;28;20554;-78
2023/07/20 02:24:28;;;;;;;4.63;2.55;;;14.60;99.90;;;;;;5061023;28;20037;-77
2023/07/20 02:26:53;;;;;;;4.28;2.50;;;14.70;99.90;;;;;;5066958;28;20037;-79
2023/07/20 02:29:19;;;;;;;2.35;1.42;;;14.60;99.90;;;;;;5072799;28;20057;-80
2023/07/20 02:31:45;;;;;;;3.08;1.60;;;14.70;99.90;;;;;;5056993;28;20068;-78
2023/07/20 02:34:10;;;;;;;3.33;2.00;;;14.70;99.90;;;;;;5073457;28;20040;-80
2023/07/20 02:36:36;;;;;;;4.25;1.80;;;14.60;99.90;;;;;;5046846;28;20048;-80
2023/07/20 02:39:04;;;;;;;3.10;1.90;;;14.60;99.90;;;;;;5067716;28;20091;-79
2023/07/20 02:41:34;;;;;;;3.35;2.03;;;14.60;99.90;;;;;;5070942;28;20044;-80
2023/07/20 02:44:00;;;;;;;3.45;2.00;;;14.50;99.90;;;;;;5057540;28;20048;-79
2023/07/20 02:46:25;;;;;;;3.97;1.80;;;14.40;99.90;;;;;;5064552;28;20037;-79
2023/07/20 02:48:51;;;;;;;4.05;1.90;;;14.40;99.90;;;;;;5071723;28;20480;-79
2023/07/20 02:51:16;;;;;;;2.60;1.50;;;14.40;99.90;;;;;;5074367;28;20093;-79
2023/07/20 02:53:42;;;;;;;2.80;1.58;;;14.40;99.90;;;;;;5044096;28;20477;-80
2023/07/20 02:56:07;;;;;;;3.20;1.63;;;14.30;99.90;;;;;;5054607;28;20052;-79
2023/07/20 02:58:38;;;;;;;2.47;1.30;;;14.40;99.90;;;;;;5075857;28;20048;-79
2023/07/20 03:01:04;;;;;;;3.72;1.80;;;14.20;99.90;;;;;;5059742;28;20040;-79
2023/07/20 03:03:29;;;;;;;3.90;1.90;;;14.20;99.90;;;;;;5056500;28;20079;-79
2023/07/20 03:05:56;;;;;;;3.03;1.88;;;14.20;99.90;;;;;;5068983;28;20192;-78
2023/07/20 03:08:22;;;;;;;2.55;2.10;;;14.10;99.90;;;;;;5043936;28;20041;-78
2023/07/20 03:10:48;;;;;;;3.13;2.00;;;14.10;99.90;;;;;;5037291;28;20045;-77
2023/07/20 03:13:14;;;;;;;3.63;1.80;;;14.10;99.90;;;;;;5068807;28;20111;-77
2023/07/20 03:15:39;;;;;;;3.08;1.73;;;14.00;99.90;;;;;;5053476;28;20045;-77
2023/07/20 03:18:05;;;;;;;2.38;1.70;;;14.00;99.90;;;;;;5045587;28;20047;-78
2023/07/20 03:20:31;;;;;;;2.63;1.63;;;13.90;99.90;;;;;;5070711;28;20124;-79
2023/07/20 03:22:57;;;;;;;2.53;1.73;;;13.90;99.90;;;;;;5070159;28;20079;-79
2023/07/20 03:25:22;;;;;;;2.47;1.60;;;13.80;99.90;;;;;;5046520;28;20454;-78
2023/07/20 03:27:48;;;;;;;1.73;1.40;;;13.80;99.90;;;;;;5068421;28;20175;-78
2023/07/20 03:30:14;;;;;;;2.40;1.60;;;13.70;99.90;;;;;;5069624;28;20455;-78
2023/07/20 03:32:39;;;;;;;2.70;1.90;;;13.60;99.90;;;;;;5059976;28;20489;-78
2023/07/20 03:35:06;;;;;;;2.95;2.10;;;13.60;99.90;;;;;;5058357;28;20040;-78
2023/07/20 03:37:31;;;;;;;2.35;1.70;;;13.60;99.90;;;;;;5070297;28;20044;-78
2023/07/20 03:39:57;;;;;;;2.13;1.55;;;13.50;99.90;;;;;;5037665;28;20397;-78
2023/07/20 03:42:23;;;;;;;2.55;1.92;;;13.50;99.90;;;;;;5036672;28;20133;-78
2023/07/20 03:44:48;;;;;;;4.15;1.80;;;13.50;99.90;;;;;;5056648;28;20037;-78
2023/07/20 03:47:14;;;;;;;4.07;2.10;;;13.50;99.90;;;;;;5066551;28;20067;-78
2023/07/20 03:49:40;;;;;;;3.58;2.30;;;13.50;99.90;;;;;;5072167;28;20043;-78
2023/07/20 03:52:05;;;;;;;3.17;2.00;;;13.50;99.90;;;;;;5073313;28;20397;-78
2023/07/20 03:54:31;;;;;;;3.30;2.03;;;13.50;99.90;;;;;;5053758;28;20036;-78
2023/07/20 03:56:56;;;;;;;2.63;1.60;;;13.40;99.90;;;;;;5073228;28;20048;-78
2023/07/20 03:59:22;;;;;;;2.05;1.50;;;13.40;99.90;;;;;;5055132;28;20039;-78
2023/07/20 04:01:48;;;;;;;1.38;1.00;;;13.40;99.90;;;;;;5060899;28;20101;-78
2023/07/20 04:04:15;;;;;;;1.90;1.20;;;13.30;99.90;;;;;;5070778;28;20047;-78
2023/07/20 04:06:44;;;;;;;3.17;1.20;;;13.30;99.90;;;;;;5072822;28;20407;-78
2023/07/20 04:09:11;;;;;;;1.90;1.60;;;13.30;99.90;;;;;;5054477;28;20037;-79
2023/07/20 04:11:36;;;;;;;4.10;1.80;;;13.20;99.90;;;;;;5062465;28;20037;-78
2023/07/20 04:14:02;;;;;;;2.70;1.90;;;13.20;99.90;;;;;;5050131;28;20040;-78
2023/07/20 04:16:27;;;;;;;2.85;2.00;;;13.20;99.90;;;;;;5056444;28;20528;-78
2023/07/20 04:18:58;;;;;;;3.17;1.63;;;13.20;99.90;;;;;;5065541;28;20032;-78
2023/07/20 04:21:25;;;;;;;4.70;1.92;;;13.20;99.90;;;;;;5072830;28;20044;-78
2023/07/20 04:23:51;;;;;;;3.13;1.80;;;13.10;99.90;;;;;;5055810;28;20040;-79
2023/07/20 04:26:16;;;;;;;5.38;1.90;;;13.10;99.90;;;;;;5042872;28;20041;-78
2023/07/20 04:28:42;;;;;;;2.60;1.90;;;13.00;99.90;;;;;;5063480;28;20417;-78
2023/07/20 04:31:13;;;;;;;3.95;2.00;;;12.90;99.90;;;;;;5068303;28;20041;-78
2023/07/20 04:33:39;;;;;;;3.30;2.05;;;12.90;99.90;;;;;;5069526;28;20037;-79
2023/07/20 04:36:05;;;;;;;3.97;2.40;;;12.90;99.90;;;;;;5071532;28;20047;-78
2023/07/20 04:38:30;;;;;;;4.75;1.85;;;12.90;99.90;;;;;;5069628;28;20492;-78
2023/07/20 04:40:56;;;;;;;4.85;2.05;;;13.00;99.90;;;;;;5071742;28;20040;-78
2023/07/20 04:43:22;;;;;;;4.05;2.50;;;13.00;99.90;;;;;;5084542;28;20036;-78
2023/07/20 04:45:47;;;;;;;4.80;2.33;;;13.10;99.90;;;;;;5058002;28;20037;-78
2023/07/20 04:48:15;;;;;;;4.60;2.40;;;13.10;99.90;;;;;;5071618;28;20085;-78
2023/07/20 04:50:41;;;;;;;3.83;2.50;;;13.10;99.90;;;;;;5071414;28;20051;-78
2023/07/20 04:53:10;;;;;;;3.78;2.28;;;13.20;99.90;;;;;;5054855;28;20511;-78
2023/07/20 04:55:36;;;;;;;4.88;2.55;;;13.20;99.90;;;;;;5071418;28;20442;-78
2023/07/20 04:58:03;;;;;;;3.53;1.92;;;13.20;99.90;;;;;;5054724;28;20469;-78
2023/07/20 05:00:38;;;;;;;3.45;2.05;;;13.30;99.90;;;;;;5071702;28;20099;-78
2023/07/20 05:03:05;;;;;;;3.28;2.17;;;13.30;99.90;;;;;;5070151;28;20032;-79
2023/07/20 05:05:31;;;;;;;5.53;2.95;;;13.40;99.90;;;;;;5071204;28;20059;-79
2023/07/20 05:07:57;;;;;;;6.80;3.53;;;13.40;99.90;;;;;;5071188;28;20476;-78
2023/07/20 05:10:23;;;;;;;5.57;3.55;;;13.40;99.90;;;;;;5054589;28;20085;-79
2023/07/20 05:12:48;;;;;;;4.90;3.10;;;13.40;99.90;;;;;;5054612;28;20507;-78
2023/07/20 05:15:14;;;;;;;6.80;3.00;;;13.40;99.90;;;;;;5069734;28;20036;-78
2023/07/20 05:17:39;;;;;;;5.13;3.20;;;13.40;99.90;;;;;;5069694;28;20178;-78
2023/07/20 05:20:06;;;;;;;5.22;3.17;;;13.50;99.90;;;;;;5091184;28;20165;-78
2023/07/20 05:22:32;;;;;;;6.13;3.33;;;13.60;99.90;;;;;;5055908;28;20047;-78
2023/07/20 05:24:57;;;;;;;5.57;2.95;;;13.60;99.90;;;;;;5070735;28;20485;-78
2023/07/20 05:27:23;;;;;;;5.45;2.75;;;13.60;99.90;;;;;;5049262;28;1063109;-77
2023/07/20 05:29:49;;;;;;;5.38;3.13;;;13.70;99.90;;;;;;5072966;28;20115;-78
2023/07/20 05:32:14;;;;;;;6.82;3.20;;;13.80;99.90;;;;;;5064448;28;20029;-78
2023/07/20 05:34:40;;;;;;;6.15;3.65;;;13.90;99.90;;;;;;5067667;28;20072;-78
2023/07/20 05:37:05;;;;;;;5.65;3.30;;;14.00;99.90;;;;;;5042879;28;20043;-78
2023/07/20 05:39:34;;;;;;;5.30;3.13;;;13.90;99.90;;;;;;5062060;28;20049;-78
2023/07/20 05:41:59;;;;;;;4.70;3.00;;;14.00;99.90;;;;;;5059070;28;20463;-78
2023/07/20 05:44:25;;;;;;;6.28;2.80;;;14.00;99.90;;;;;;5063556;28;20134;-78
2023/07/20 05:46:50;;;;;;;5.32;3.00;;;14.10;99.90;;;;;;5054799;28;20079;-78
2023/07/20 05:49:16;;;;;;;6.13;2.60;;;14.10;99.90;;;;;;5055132;28;20080;-78
2023/07/20 05:51:42;;;;;;;5.13;2.75;;;14.30;99.90;;;;;;5037088;28;20029;-78
2023/07/20 05:54:08;;;;;;;4.38;2.30;;;14.30;99.90;;;;;;5066314;28;20033;-78
2023/07/20 05:56:33;;;;;;;4.25;2.30;;;14.30;99.90;;;;;;5034700;28;20045;-76
2023/07/20 05:58:59;;;;;;;12.00;2.75;;;14.40;99.90;;;;;;5067987;28;20043;-75
2023/07/20 06:01:27;;;;;;;5.28;2.05;;;14.50;99.90;;;;;;5057263;28;20385;-76
2023/07/20 06:03:53;;;;;;;5.95;2.33;;;14.50;99.90;;;;;;5070200;28;20055;-76
2023/07/20 06:06:19;;;;;;;4.72;2.28;;;14.70;99.90;;;;;;5067735;28;20037;-79
2023/07/20 06:08:45;;;;;;;4.30;2.28;;;14.80;99.90;;;;;;5071335;28;20036;-79
2023/07/20 06:11:11;;;;;;;4.32;1.95;;;15.00;99.90;;;;;;5054639;28;20033;-79
2023/07/20 06:13:36;;;;;;;4.10;1.95;;;15.10;99.90;;;;;;5071561;28;20040;-79
2023/07/20 06:16:03;;;;;;;3.90;1.90;;;15.20;99.90;;;;;;5054777;28;20454;-79
2023/07/20 06:18:30;;;;;;;4.35;1.95;;;15.40;99.90;;;;;;5054518;28;20044;-79
2023/07/20 06:20:55;;;;;;;4.90;2.10;;;15.50;99.90;;;;;;5071379;28;20120;-79
2023/07/20 06:23:21;;;;;;;3.05;2.05;;;15.50;99.90;;;;;;5054483;28;20125;-79
2023/07/20 06:25:47;;;;;;;5.93;2.45;;;15.70;99.90;;;;;;5054395;28;20045;-79
2023/07/20 06:28:13;;;;;;;5.38;2.28;;;15.80;99.90;;;;;;5075390;28;20500;-79
2023/07/20 06:30:38;;;;;;;3.22;1.90;;;15.90;99.90;;;;;;5058061;28;20036;-79
2023/07/20 06:33:04;;;;;;;3.70;1.80;;;15.90;99.90;;;;;;5074825;28;20064;-79
2023/07/20 06:35:29;;;;;;;4.78;2.28;;;16.00;99.90;;;;;;5072479;28;20037;-79
2023/07/20 06:37:55;;;;;;;4.47;2.00;;;16.10;99.90;;;;;;5073576;28;20504;-79
2023/07/20 06:40:21;;;;;;;5.40;1.92;;;16.20;99.90;;;;;;5074832;28;20036;-79
2023/07/20 06:42:47;;;;;;;6.03;2.08;;;16.30;99.90;;;;;;5074461;28;20040;-79
2023/07/20 06:45:12;;;;;;;3.53;1.35;;;16.30;99.90;;;;;;5057746;28;20436;-79
2023/07/20 06:47:42;;;;;;;3.35;1.58;;;16.40;99.90;;;;;;5075650;28;20041;-80
2023/07/20 06:50:09;;;;;;;3.03;1.30;;;16.50;99.90;;;;;;5074605;28;20051;-80
2023/07/20 06:52:34;;;;;;;2.67;1.60;;;16.50;99.90;;;;;;5074234;28;20079;-80
2023/07/20 06:55:00;;;;;;;4.10;1.60;;;16.60;99.90;;;;;;5057584;28;20059;-80
2023/07/20 06:57:26;;;;;;;4.60;1.48;;;16.70;99.90;;;;;;5057589;28;20086;-80
2023/07/20 06:59:51;;;;;;;4.60;1.40;;;16.90;99.90;;;;;;5057513;28;20036;-80
2023/07/20 07:02:17;;;;;;;6.10;1.48;;;16.80;99.90;;;;;;5074088;28;20123;-77
2023/07/20 07:04:43;;;;;;;4.85;1.58;;;16.80;99.90;;;;;;5063713;28;20492;-78
2023/07/20 07:07:09;;;;;;;3.90;1.20;;;16.90;99.90;;;;;;5055152;28;20033;-77
2023/07/20 07:09:35;;;;;;;3.65;1.10;;;17.10;99.90;;;;;;5037231;28;20481;-80
2023/07/20 07:12:01;;;;;;;3.35;1.38;;;17.10;99.90;;;;;;5053385;28;20037;-81
2023/07/20 07:14:27;;;;;;;4.55;1.58;;;17.20;99.90;;;;;;5053462;28;20044;-80
2023/07/20 07:16:52;;;;;;;4.70;1.27;;;17.20;99.90;;;;;;5068850;28;20032;-81
2023/07/20 07:19:18;;;;;;;3.33;1.13;;;17.20;99.90;;;;;;5073755;28;20052;-80
2023/07/20 07:21:44;;;;;;;2.60;1.10;;;17.30;99.90;;;;;;5057034;28;20044;-80
2023/07/20 07:24:09;;;;;;;3.20;1.10;;;17.40;99.90;;;;;;5052251;28;20419;-80
2023/07/20 07:26:36;;;;;;;2.92;1.20;;;17.40;99.90;;;;;;5060121;28;20099;-80
2023/07/20 07:29:02;;;;;;;4.65;1.30;;;17.30;99.90;;;;;;5054742;28;20219;-81
2023/07/20 07:31:30;;;;;;;6.18;1.45;;;17.30;99.90;;;;;;5053544;28;20076;-80
2023/07/20 07:33:56;;;;;;;4.75;1.50;;;17.30;99.90;;;;;;5056373;28;20033;-80
2023/07/20 07:36:24;;;;;;;7.28;1.67;;;17.40;99.90;;;;;;5072183;28;20503;-80
2023/07/20 07:38:49;;;;;;;4.10;1.30;;;17.40;99.90;;;;;;5055739;28;20048;-80
2023/07/20 07:41:15;;;;;;;5.55;1.40;;;17.40;99.90;;;;;;5056677;28;20130;-81
2023/07/20 07:43:41;;;;;;;3.88;1.50;;;17.40;99.90;;;;;;5068085;28;20469;-80
2023/07/20 07:46:06;;;;;;;3.67;1.40;;;17.40;99.90;;;;;;5053337;28;20037;-81
2023/07/20 07:48:32;;;;;;;5.13;1.70;;;17.50;99.90;;;;;;5039930;28;20033;-81
2023/07/20 07:50:57;;;;;;;5.05;1.58;;;17.40;99.90;;;;;;5056560;28;20508;-81
2023/07/20 07:53:25;;;;;;;6.60;1.40;;;17.40;99.90;;;;;;5039837;28;20448;-81
2023/07/20 07:55:51;;;;;;;8.05;1.70;;;17.40;99.90;;;;;;5056340;28;20039;-81
2023/07/20 07:58:16;;;;;;;3.40;1.50;;;17.50;99.90;;;;;;5068625;28;20408;-80
2023/07/20 08:00:43;;;;;;;5.93;1.60;;;17.40;99.90;;;;;;5036659;28;20040;-80
2023/07/20 08:03:09;;;;;;;4.63;1.50;;;17.40;99.90;;;;;;5052771;28;20041;-81
2023/07/20 08:05:37;;;;;;;5.45;1.80;;;17.50;99.90;;;;;;5053851;28;20066;-81
2023/07/20 08:08:06;;;;;;;3.40;1.60;;;17.60;99.90;;;;;;5054535;28;20531;-81
2023/07/20 08:10:32;;;;;;;6.03;1.48;;;17.80;99.90;;;;;;5072740;28;20120;-81
2023/07/20 08:12:57;;;;;;;6.90;1.50;;;17.90;99.90;;;;;;5089420;28;20075;-81
2023/07/20 08:15:23;;;;;;;3.75;1.42;;;17.90;99.90;;;;;;5054688;28;20029;-81
2023/07/20 08:17:51;;;;;;;5.50;1.45;;;17.90;99.90;;;;;;5052916;28;20068;-80
2023/07/20 08:20:17;;;;;;;6.50;1.95;;;17.80;99.90;;;;;;5056635;28;20057;-81
2023/07/20 08:22:43;;;;;;;5.28;1.50;;;17.80;99.90;;;;;;5060942;28;20051;-80
2023/07/20 08:25:09;;;;;;;4.32;1.58;;;17.90;99.90;;;;;;5061120;28;20032;-81
2023/07/20 08:27:37;;;;;;;5.55;1.50;;;18.00;99.90;;;;;;5038783;28;20489;-81
2023/07/20 08:30:04;;;;;;;5.70;1.83;;;18.20;99.90;;;;;;5068413;28;20044;-81
2023/07/20 08:32:30;;;;;;;3.45;1.38;;;18.40;99.90;;;;;;5068719;28;20040;-81
2023/07/20 08:34:55;;;;;;;5.03;1.80;;;18.50;99.90;;;;;;5049243;28;20412;-81
2023/07/20 08:37:21;;;;;;;3.90;1.50;;;18.70;99.90;;;;;;5059189;28;20098;-81
2023/07/20 08:39:46;;;;;;;4.95;1.55;;;18.70;99.90;;;;;;5053193;28;20452;-81
2023/07/20 08:42:14;;;;;;;3.47;1.50;;;18.70;99.90;;;;;;5047468;28;20570;-80
2023/07/20 08:44:42;;;;;;;3.58;1.50;;;18.60;99.90;;;;;;5063928;28;20497;-81
2023/07/20 08:47:09;;;;;;;4.55;1.63;;;18.40;99.90;;;;;;5071133;28;20066;-80
2023/07/20 08:49:35;;;;;;;5.40;1.70;;;18.50;99.90;;;;;;5073358;28;20455;-81
2023/07/20 08:52:01;;;;;;;2.40;1.35;;;18.70;99.90;;;;;;5047513;28;20107;-80
2023/07/20 08:54:32;;;;;;;4.28;1.40;;;18.80;99.90;;;;;;5046182;28;20033;-81
2023/07/20 08:57:02;;;;;;;3.90;1.30;;;18.90;99.90;;;;;;5053921;28;20040;-81
2023/07/20 08:59:28;;;;;;;2.45;1.23;;;19.10;99.90;;;;;;5058937;28;20087;-81
2023/07/20 09:01:56;;;;;;;3.20;1.20;;;19.30;99.90;;;;;;5051142;28;20067;-81
2023/07/20 09:04:22;;;;;;;2.70;1.35;;;19.40;99.90;;;;;;5073405;28;20037;-80
2023/07/20 09:06:49;;;;;;;5.22;1.90;;;19.60;99.90;;;;;;5070056;28;20117;-81
2023/07/20 09:09:15;;;;;;;6.15;1.75;;;19.60;99.90;;;;;;5048977;28;20197;-81
2023/07/20 09:11:40;;;;;;;3.88;1.63;;;19.40;99.90;;;;;;5054724;28;20028;-81
2023/07/20 09:14:07;;;;;;;5.47;1.98;;;19.30;99.90;;;;;;5073597;28;20036;-81
2023/07/20 09:16:47;;;;;;;5.97;1.80;;;19.20;99.90;;;;;;5053381;28;20044;-81
2023/07/20 09:19:15;;;;;;;6.15;1.70;;;19.00;99.90;;;;;;5055187;28;20040;-81
2023/07/20 09:21:40;;;;;;;5.68;2.05;;;19.00;99.90;;;;;;5061391;28;20556;-81
2023/07/20 09:24:06;;;;;;;3.85;1.77;;;19.00;99.90;;;;;;5045499;28;20111;-81
2023/07/20 09:26:41;;;;;;;6.50;1.75;;;19.00;99.90;;;;;;5088450;28;20040;-81
2023/07/20 09:29:09;;;;;;;5.53;1.90;;;18.90;99.90;;;;;;5045409;28;20436;-81
2023/07/20 09:31:34;;;;;;;8.50;2.03;;;18.90;99.90;;;;;;5070231;28;20036;-81
2023/07/20 09:34:00;;;;;;;6.10;1.80;;;19.10;99.90;;;;;;5059328;28;20120;-77
2023/07/20 09:36:29;;;;;;;4.93;1.80;;;19.30;99.90;;;;;;5051709;28;20036;-76
2023/07/20 09:38:55;;;;;;;6.15;1.92;;;19.40;99.90;;;;;;5052279;28;21978;-77
2023/07/20 09:41:21;;;;;;;5.30;1.92;;;19.50;99.90;;;;;;5068095;28;20044;-76
2023/07/20 09:43:47;;;;;;;5.45;1.98;;;19.60;99.90;;;;;;5046815;28;20086;-76
2023/07/20 09:46:13;;;;;;;4.72;1.83;;;19.50;99.90;;;;;;5067558;28;20045;-76
2023/07/20 09:48:39;;;;;;;4.55;1.67;;;19.60;99.90;;;;;;5066482;28;20148;-76
2023/07/20 09:51:06;;;;;;;6.68;2.45;;;19.70;99.90;;;;;;5072724;28;20638;-76
2023/07/20 09:53:33;;;;;;;8.32;2.10;;;19.80;99.90;;;;;;5070726;28;20044;-76
2023/07/20 09:55:59;;;;;;;7.93;1.63;;;19.70;99.90;;;;;;5062020;28;20037;-77
2023/07/20 09:58:31;;;;;;;7.20;1.90;;;19.60;99.90;;;;;;5059577;28;20490;-77
2023/07/20 10:01:00;;;;;;;6.47;1.95;;;19.40;99.90;;;;;;5051487;28;20040;-77
2023/07/20 10:03:30;;;;;;;7.25;1.65;;;19.30;99.90;;;;;;5066360;28;20036;-76
2023/07/20 10:06:08;;;;;;;6.30;1.80;;;19.20;99.90;;;;;;5058410;28;20037;-78
2023/07/20 10:08:39;;;;;;;5.80;1.80;;;19.20;99.90;;;;;;5065152;28;20044;-76
2023/07/20 10:11:07;;;;;;;4.40;1.70;;;19.20;99.90;;;;;;5072975;28;20048;-76
2023/07/20 10:13:37;;;;;;;4.82;1.60;;;19.20;99.90;;;;;;5055704;28;20043;-76
2023/07/20 10:16:10;;;;;;;4.28;1.85;;;19.20;99.90;;;;;;5046981;28;20033;-77
2023/07/20 10:19:01;;;;;;;4.13;1.75;;;19.30;99.90;;;;;;5044204;28;20119;-76
2023/07/20 10:21:29;;;;;;;5.40;1.95;;;19.50;99.90;;;;;;5074862;28;20058;-76
2023/07/20 10:23:56;;;;;;;5.32;1.30;;;19.70;99.90;;;;;;5074819;28;20072;-76
2023/07/20 10:26:21;;;;;;;6.75;1.42;;;19.80;99.90;;;;;;5066512;28;20098;-76
2023/07/20 10:28:47;;;;;;;4.93;1.45;;;19.90;99.90;;;;;;5056980;28;20048;-76
2023/07/20 10:31:14;;;;;;;5.30;1.50;;;20.00;99.90;;;;;;5058016;28;20484;-76
2023/07/20 10:33:40;;;;;;;4.68;1.30;;;20.10;99.90;;;;;;5070040;28;20036;-76
2023/07/20 10:36:06;;;;;;;4.18;1.55;;;20.20;99.90;;;;;;5066600;28;20094;-76
2023/07/20 10:38:46;;;;;;;4.85;1.50;;;20.30;99.90;;;;;;5070333;28;20044;-77
2023/07/20 10:41:29;;;;;;;5.82;1.30;;;20.40;99.90;;;;;;5074247;28;20136;-76
2023/07/20 10:44:02;;;;;;;5.93;1.40;;;20.50;99.90;;;;;;5048492;28;20072;-77
2023/07/20 10:46:44;;;;;;;3.85;1.30;;;20.50;99.90;;;;;;5054836;28;20040;-77
2023/07/20 10:49:10;;;;;;;;;;;20.50;99.90;;;;;;5075927;28;20503;-76
2023/07/20 10:51:40;;;;;;;5.65;1.45;;;20.50;99.90;;;;;;5070972;28;19916;-76
2023/07/20 10:54:17;;;;;;;3.65;1.30;;;20.50;99.90;;;;;;5055986;28;20036;-77
2023/07/20 10:56:44;;;;;;;3.67;1.15;;;20.30;99.90;;;;;;5049623;28;20500;-77
2023/07/20 10:59:36;;;;;;;4.30;1.20;;;20.10;99.90;;;;;;5046033;28;20041;-76
2023/07/20 11:02:09;;;;;;;4.93;1.10;;;20.00;99.90;;;;;;5074305;28;20036;-76
2023/07/20 11:04:45;;;;;;;4.70;1.10;;;20.10;99.90;;;;;;5053873;28;20043;-76
2023/07/20 11:07:37;;;;;;;3.05;1.20;;;20.20;99.90;;;;;;5072878;28;20036;-76
2023/07/20 11:10:23;;;;;;;6.78;1.45;;;20.20;99.90;;;;;;5067708;28;20028;-76
2023/07/20 11:13:22;;;;;;;4.00;1.45;;;20.10;99.90;;;;;;5056856;28;20077;-77
2023/07/20 11:15:57;;;;;;;3.05;1.30;;;19.90;99.90;;;;;;5048201;28;20044;-77
2023/07/20 11:18:26;;;;;;;5.03;1.20;;;19.80;99.90;;;;;;5053748;28;20119;-76
2023/07/20 11:20:53;;;;;;;3.22;1.30;;;19.70;99.90;;;;;;5059736;28;20489;-75
2023/07/20 11:23:20;;;;;;;3.80;1.25;;;19.60;99.90;;;;;;5058782;28;20505;-75
2023/07/20 11:25:45;;;;;;;4.50;1.20;;;19.50;99.90;;;;;;5072193;28;20362;-75
2023/07/20 11:28:11;;;;;;;3.30;1.25;;;19.40;99.90;;;;;;5073312;28;20063;-75
2023/07/20 11:30:40;;;;;;;3.55;1.40;;;19.40;99.90;;;;;;5074946;28;20044;-75
2023/07/20 11:33:08;;;;;;;4.72;1.35;;;19.50;99.90;;;;;;5073789;28;20048;-75
2023/07/20 11:35:50;;;;;;;2.58;1.00;;;19.50;99.90;;;;;;5073442;28;20082;-75
2023/07/20 11:38:16;;;;;;;4.28;1.20;;;19.50;99.90;;;;;;5056714;28;20469;-75
2023/07/20 11:40:46;;;;;;;3.60;1.10;;;19.50;99.90;;;;;;5073390;28;20044;-75
2023/07/20 11:43:13;;;;;;;4.10;1.10;;;19.50;99.90;;;;;;5073274;28;20086;-76
2023/07/20 11:45:39;;;;;;;4.95;1.10;;;19.40;99.90;;;;;;5073543;28;20492;-75
2023/07/20 11:48:05;;;;;;;3.10;1.10;;;19.40;99.90;;;;;;5056530;28;20074;-76
2023/07/20 11:50:30;;;;;;;4.68;1.08;;;19.40;99.90;;;;;;5073071;28;20037;-76
2023/07/20 11:52:56;;;;;;;2.88;1.02;;;19.40;99.90;;;;;;5056782;28;20404;-76
2023/07/20 11:55:22;;;;;;;3.28;1.40;;;19.40;99.90;;;;;;5090189;28;20166;-76
2023/07/20 11:58:08;;;;;;;4.25;1.38;;;19.40;99.90;;;;;;5073030;28;20037;-76
2023/07/20 12:00:35;;;;;;;3.97;1.20;;;19.60;99.90;;;;;;5073097;28;20040;-76
2023/07/20 12:03:01;;;;;;;3.55;1.10;;;19.60;99.90;;;;;;5072910;28;20551;-76
2023/07/20 12:05:27;;;;;;;3.20;1.00;;;19.70;99.90;;;;;;5072936;28;20123;-76
2023/07/20 12:07:54;;;;;;;2.35;1.10;;;20.00;99.90;;;;;;5056164;28;20040;-76
2023/07/20 12:10:28;;;;;;;6.45;1.30;;;20.10;99.90;;;;;;5056141;28;20466;-76
2023/07/20 12:12:54;;;;;;;3.63;1.10;;;20.30;99.90;;;;;;5072765;28;20043;-76
2023/07/20 12:15:31;;;;;;;3.42;1.20;;;20.40;99.90;;;;;;5072900;28;20481;-76
2023/07/20 12:18:01;;;;;;;4.45;1.08;;;20.50;99.90;;;;;;5056040;28;20040;-76
2023/07/20 12:20:37;;;;;;;4.03;1.17;;;20.50;99.90;;;;;;5056180;28;20397;-76
2023/07/20 12:23:13;;;;;;;3.83;1.38;;;20.50;99.90;;;;;;5055846;28;20040;-76
2023/07/20 12:25:43;;;;;;;4.13;1.33;;;20.50;99.90;;;;;;5072336;28;20047;-76
2023/07/20 12:28:11;;;;;;;3.28;1.35;;;20.50;99.90;;;;;;5055609;28;20055;-76
2023/07/20 12:30:38;;;;;;;4.25;1.40;;;20.40;99.90;;;;;;5073764;28;20125;-76
2023/07/20 12:33:04;;;;;;;5.22;1.70;;;20.40;99.90;;;;;;5072705;28;20487;-76
2023/07/20 12:35:31;;;;;;;3.00;1.50;;;20.30;99.90;;;;;;5073641;28;20447;-76
2023/07/20 12:37:57;;;;;;;3.83;1.48;;;20.10;99.90;;;;;;5089158;28;20040;-76
2023/07/20 12:40:23;;;;;;;5.88;1.45;;;20.00;99.90;;;;;;5072103;28;20032;-76
2023/07/20 12:42:48;;;;;;;4.03;1.60;;;19.90;99.90;;;;;;5073744;28;20443;-76
2023/07/20 12:45:14;;;;;;;4.85;1.30;;;19.80;99.90;;;;;;5073646;28;20072;-76
2023/07/20 12:47:41;;;;;;;5.00;1.35;;;19.70;99.90;;;;;;5072182;28;20041;-76
2023/07/20 12:50:07;;;;;;;3.97;1.20;;;19.70;99.90;;;;;;5072082;28;20094;-76